|
Latest SYNOP SHIP Observations
JKFA7QZ DBLK R/V Polarstern | |
| Day | DTG UTC | La.mm | Lon.mm | TRK/SPD | Wind | kt | N | Vis | wwMETAR | Tl | Td | Tw | Sea | Swl | ~Dir | MSLP | ICE | Bi |
|---|---|---|---|---|---|---|---|---|---|---|---|---|---|---|---|---|---|---|
| DON | 07.05.26 10:00 | N32.24 | W013.30 | W013.30 | 340 | 08 | / | - | - | 16.6 | 9.8 | 18.9 | - | - | - | 1015.3 | / | / |
| DON | 07.05.26 09:00 | N32.18 | W013.36 | W013.36 | 340 | 08 | / | - | - | 16.6 | 9.1 | 18.9 | - | - | - | 1015.2 | / | / |
| DON | 07.05.26 08:00 | N32.12 | W013.36 | W013.36 | 350 | 12 | / | - | - | 16.4 | 10.1 | 18.9 | - | - | - | 1014.7 | / | / |
| DON | 07.05.26 07:00 | N32.06 | W013.42 | W013.42 | 10 | 14 | / | - | - | 16.5 | 10.0 | 18.8 | - | - | - | 1014.2 | / | / |
| DON | 07.05.26 05:00 | N31.48 | W014.00 | W014.00 | 10 | 14 | / | - | - | 16.7 | 9.7 | 19.0 | - | - | - | 1013.9 | / | / |
| DON | 07.05.26 04:00 | N31.36 | W014.06 | W014.06 | 20 | 16 | / | - | - | 16.9 | 9.9 | 19.1 | - | - | - | 1014.3 | / | / |
| DON | 07.05.26 03:00 | N31.24 | W014.12 | W014.12 | 30 | 16 | / | - | - | 17.0 | 9.7 | 19.1 | - | - | - | 1014.5 | / | / |
| DON | 07.05.26 02:00 | N31.18 | W014.12 | W014.12 | 20 | 16 | / | - | - | 17.3 | 11.6 | 19.3 | - | - | - | 1015.1 | / | / |
| DON | 07.05.26 01:00 | N31.06 | W014.18 | W014.18 | 10 | 19 | / | - | - | 16.8 | 12.2 | 19.1 | - | - | - | 1015.7 | / | / |
| MIT | 06.05.26 21:00 | N30.30 | W014.42 | W014.42 | 20 | 18 | 7 | 20 | 20 | 17.8 | 9.7 | 20.4 | 2.0 | - | - | 1016.4 | / | / |
| MIT | 06.05.26 14:00 | N29.24 | W015.18 | W015.18 | 60 | 18 | / | - | - | 19.0 | 13.0 | 20.4 | - | - | - | 1015.5 | / | / |
| MIT | 06.05.26 13:00 | N29.12 | W015.24 | W015.24 | 50 | 18 | / | - | - | 18.9 | 13.8 | 20.2 | - | - | - | 1015.7 | / | / |
| MIT | 06.05.26 09:00 | N29.00 | W015.30 | W015.30 | 40 | 12 | 6 | 20 | 20 | 19.1 | 14.8 | 20.4 | 1.5 | 1.5 | 80 | 1015.4 | / | / |
| MIT | 06.05.26 07:00 | N29.00 | W015.30 | W015.30 | 60 | 16 | / | - | - | 18.9 | 14.0 | 20.3 | - | - | - | 1014.3 | / | / |
| MIT | 06.05.26 06:00 | N29.00 | W015.30 | W015.30 | 50 | 16 | 4 | 20 | 20 | 18.7 | 14.5 | 20.3 | - | - | - | 1013.9 | / | / |
| MIT | 06.05.26 05:00 | N29.00 | W015.30 | W015.30 | 50 | 16 | / | - | - | 18.8 | 15.2 | 20.3 | - | - | - | 1013.9 | / | / |
| MIT | 06.05.26 04:00 | N29.00 | W015.30 | W015.30 | 60 | 12 | / | - | - | 18.9 | 15.1 | 20.2 | - | - | - | 1014.3 | / | / |
| MIT | 06.05.26 02:00 | N28.48 | W015.36 | W015.36 | 70 | 16 | / | - | - | 19.0 | 15.5 | 20.4 | - | - | - | 1014.6 | / | / |
| MIT | 06.05.26 00:00 | N28.18 | W015.36 | W015.36 | 70 | 18 | 4 | 20 | 20 | 19.4 | 16.3 | 20.4 | - | - | - | 1015.7 | / | / |
| DIE | 05.05.26 18:00 | N27.36 | W016.30 | W016.30 | 10 | 14 | 2 | 20 | 20 | 19.8 | 17.5 | 21.1 | 0.5 | 1.0 | 70 | 1013.8 | / | / |
| Day | DTG UTC | La.mm | Lon.mm | TRK/SPD | Wind | kt | N | Vis | wwMETAR | Tl | Td | Tw | Sea | Swl | ~Dir | MSLP | ICE | Bi |
|---|---|---|---|---|---|---|---|---|---|---|---|---|---|---|---|---|---|---|
| DIE | 05.05.26 17:00 | N27.30 | W016.36 | W016.36 | 20 | 08 | / | - | - | 19.7 | 17.2 | 21.2 | - | - | - | 1014.2 | / | / |
| DIE | 05.05.26 15:00 | N27.12 | W016.54 | W016.54 | 60 | 06 | 4 | 20 | 20 | 19.9 | 17.0 | 21.3 | 0.5 | 1.5 | 70 | 1015.0 | / | / |
| DIE | 05.05.26 11:00 | N26.54 | W017.12 | W017.12 | 90 | 14 | / | - | - | 20.5 | 17.4 | 21.3 | - | - | - | 1016.3 | / | / |
| DIE | 05.05.26 09:00 | N26.54 | W017.18 | W017.18 | 40 | 16 | 6 | 20 | 20 | 19.8 | 17.5 | 21.3 | 2.0 | 1.0 | 70 | 1015.5 | / | / |
| DIE | 05.05.26 05:00 | N26.24 | W017.48 | W017.48 | 40 | 18 | / | - | - | 19.9 | 17.4 | 21.1 | - | - | - | 1013.8 | / | / |
| DIE | 05.05.26 04:00 | N26.18 | W017.54 | W017.54 | 40 | 19 | / | - | - | 19.9 | 17.4 | 21.1 | - | - | - | 1014.0 | / | / |
| DIE | 05.05.26 03:00 | N26.06 | W018.00 | W018.00 | 40 | 18 | / | - | - | 20.0 | 17.5 | 21.1 | - | - | - | 1014.4 | / | / |
| MON | 04.05.26 19:00 | N25.06 | W019.06 | W019.06 | 50 | 14 | / | - | - | 20.5 | 17.6 | 21.6 | - | - | - | 1014.2 | / | / |
| MON | 04.05.26 18:00 | N25.00 | W019.06 | W019.06 | 60 | 14 | 2 | 20 | 20 | 20.6 | 17.9 | 21.6 | 0.5 | 1.5 | 70 | 1013.9 | / | / |
| MON | 04.05.26 16:00 | N24.42 | W019.30 | W019.30 | 70 | 16 | / | - | - | 20.5 | 18.0 | 21.6 | - | - | - | 1014.0 | / | / |
| MON | 04.05.26 15:00 | N24.36 | W019.36 | W019.36 | 60 | 16 | 2 | 20 | 20 | 20.6 | 17.5 | 21.6 | 0.5 | 1.5 | 80 | 1014.5 | / | / |
| MON | 04.05.26 14:00 | N24.24 | W019.42 | W019.42 | 60 | 18 | / | - | - | 20.7 | 18.0 | 21.6 | - | - | - | 1014.8 | / | / |
| MON | 04.05.26 13:00 | N24.18 | W019.48 | W019.48 | 60 | 18 | / | - | - | 20.5 | 17.6 | 21.6 | - | - | - | 1014.7 | / | / |
| MON | 04.05.26 07:00 | N23.54 | W020.06 | W020.06 | 40 | 18 | / | - | - | 20.4 | 17.7 | 21.4 | - | - | - | 1014.7 | / | / |
| MON | 04.05.26 05:00 | N23.36 | W020.18 | W020.18 | 30 | 16 | / | - | - | 20.4 | 18.1 | 21.4 | - | - | - | 1014.5 | / | / |
| MON | 04.05.26 04:00 | N23.30 | W020.24 | W020.24 | 40 | 18 | / | - | - | 20.3 | 17.8 | 21.6 | - | - | - | 1014.1 | / | / |
| MON | 04.05.26 02:00 | N23.12 | W020.36 | W020.36 | 50 | 18 | / | - | - | 20.6 | 17.9 | 21.6 | - | - | - | 1014.9 | / | / |
| MON | 04.05.26 01:00 | N23.00 | W020.42 | W020.42 | 50 | 19 | / | - | - | 20.6 | 17.9 | 21.5 | - | - | - | 1015.2 | / | / |
| SON | 03.05.26 21:00 | N22.24 | W021.06 | W021.06 | 30 | 18 | 1 | 20 | 20 | 20.8 | 18.3 | 21.8 | - | - | - | 1014.7 | / | / |
| SON | 03.05.26 18:00 | N22.00 | W021.18 | W021.18 | 30 | 18 | 5 | 20 | 20 | 21.1 | 18.0 | 21.9 | 0.5 | 2.0 | 60 | 1014.2 | / | / |
| Day | DTG UTC | La.mm | Lon.mm | TRK/SPD | Wind | kt | N | Vis | wwMETAR | Tl | Td | Tw | Sea | Swl | ~Dir | MSLP | ICE | Bi |
|---|---|---|---|---|---|---|---|---|---|---|---|---|---|---|---|---|---|---|
| SON | 03.05.26 16:00 | N21.42 | W021.36 | W021.36 | 30 | 18 | / | - | - | 21.0 | 17.9 | 21.8 | - | - | - | 1014.4 | / | / |
| SON | 03.05.26 15:00 | N21.30 | W021.42 | W021.42 | 30 | 18 | 3 | 20 | 20 | 21.1 | 18.2 | 22.1 | 1.0 | 2.0 | 60 | 1014.9 | / | / |
| SON | 03.05.26 11:00 | N20.54 | W022.06 | W022.06 | 40 | 19 | / | - | - | 21.1 | 17.4 | 21.9 | - | - | - | 1016.2 | / | / |
| SON | 03.05.26 10:00 | N20.48 | W022.12 | W022.12 | 40 | 19 | / | - | - | 21.1 | 17.4 | 21.9 | - | - | - | 1016.4 | / | / |
| SON | 03.05.26 09:00 | N20.42 | W022.12 | W022.12 | 40 | 21 | 5 | 20 | 20 | 21.0 | 17.1 | 22.0 | 2.0 | 2.0 | 50 | 1016.4 | / | / |
| SON | 03.05.26 07:00 | N20.42 | W022.12 | W022.12 | 30 | 21 | / | - | - | 20.8 | 17.1 | 22.0 | - | - | - | 1015.2 | / | / |
| SON | 03.05.26 04:00 | N20.42 | W022.18 | W022.18 | 30 | 18 | / | - | - | 20.8 | 17.3 | 22.0 | - | - | - | 1015.1 | / | / |
| SON | 03.05.26 03:00 | N20.30 | W022.24 | W022.24 | 30 | 18 | / | - | - | 20.9 | 17.2 | 22.2 | - | - | - | 1015.8 | / | / |
| SON | 03.05.26 02:00 | N20.24 | W022.30 | W022.30 | 30 | 18 | / | - | - | 21.0 | 17.9 | 22.2 | - | - | - | 1016.1 | / | / |
| SON | 03.05.26 00:00 | N20.06 | W022.36 | W022.36 | 30 | 18 | 5 | 20 | 20 | 21.1 | 17.8 | 22.3 | 2.0 | - | - | 1016.9 | / | / |
| SAM | 02.05.26 21:00 | N19.36 | W023.00 | W023.00 | 30 | 19 | / | - | - | 21.2 | 17.9 | 22.1 | - | - | - | 1015.9 | / | / |
| SAM | 02.05.26 18:00 | N19.06 | W023.18 | W023.18 | 30 | 19 | 3 | 20 | 20 | 21.5 | 18.6 | 22.2 | 1.0 | 2.0 | 50 | 1015.2 | / | / |
| SAM | 02.05.26 17:00 | N19.00 | W023.24 | W023.24 | 30 | 19 | / | - | - | 21.5 | 18.4 | 22.2 | - | - | - | 1015.2 | / | / |
| SAM | 02.05.26 16:00 | N19.00 | W023.24 | W023.24 | 30 | 19 | / | - | - | 21.5 | 18.4 | 22.2 | - | - | - | 1015.9 | / | / |
| SAM | 02.05.26 14:00 | N19.00 | W023.24 | W023.24 | 30 | 21 | / | - | - | 21.5 | 18.0 | 22.1 | - | - | - | 1017.2 | / | / |
| SAM | 02.05.26 13:00 | N19.00 | W023.24 | W023.24 | 30 | 19 | / | - | - | 21.4 | 17.9 | 22.1 | - | - | - | 1017.8 | / | / |
| SAM | 02.05.26 12:00 | N18.48 | W023.18 | W023.18 | 30 | 21 | / | - | - | 21.3 | 18.2 | 22.0 | - | - | - | 1017.3 | / | / |
| SAM | 02.05.26 10:00 | N18.30 | W023.24 | W023.24 | 30 | 23 | / | - | - | 21.2 | 18.5 | 22.1 | - | - | - | 1017.0 | / | / |
| FRE | 01.05.26 18:00 | N17.18 | W024.30 | W024.30 | 40 | 16 | / | - | - | 21.9 | 18.6 | 23.1 | - | - | - | 1015.2 | / | / |
| FRE | 01.05.26 16:00 | N17.00 | W024.48 | W024.48 | 40 | 16 | / | - | - | 21.9 | 18.2 | 23.3 | - | - | - | 1015.9 | / | / |
| Day | DTG UTC | La.mm | Lon.mm | TRK/SPD | Wind | kt | N | Vis | wwMETAR | Tl | Td | Tw | Sea | Swl | ~Dir | MSLP | ICE | Bi |
|---|---|---|---|---|---|---|---|---|---|---|---|---|---|---|---|---|---|---|
| FRE | 01.05.26 15:00 | N16.54 | W024.54 | W024.54 | 60 | 21 | / | - | - | 21.9 | 17.8 | 23.1 | - | - | - | 1016.1 | / | / |
| FRE | 01.05.26 14:00 | N16.48 | W025.00 | W025.00 | 50 | 18 | / | - | - | 22.1 | 16.9 | 22.2 | - | - | - | 1016.8 | / | / |
| FRE | 01.05.26 13:00 | N16.48 | W025.00 | W025.00 | 60 | 19 | / | - | - | 21.9 | 16.9 | 22.4 | - | - | - | 1017.2 | / | / |
| FRE | 01.05.26 12:00 | N16.48 | W025.00 | W025.00 | 60 | 21 | / | - | - | 21.8 | 16.4 | 22.3 | - | - | - | 1017.7 | / | / |
| FRE | 01.05.26 11:00 | N16.48 | W025.00 | W025.00 | 50 | 16 | / | - | - | 21.8 | 16.2 | 22.2 | - | - | - | 1017.8 | / | / |
| FRE | 01.05.26 10:00 | N16.48 | W025.00 | W025.00 | 60 | 21 | / | - | - | 21.6 | 16.2 | 22.1 | - | - | - | 1017.8 | / | / |
| FRE | 01.05.26 09:00 | N16.48 | W025.00 | W025.00 | 50 | 14 | / | - | - | 21.5 | 16.3 | 22.3 | - | - | - | 1017.3 | / | / |
| FRE | 01.05.26 08:00 | N16.48 | W025.00 | W025.00 | 60 | 16 | / | - | - | 21.5 | 16.3 | 22.3 | - | - | - | 1016.6 | / | / |
| FRE | 01.05.26 05:00 | N16.48 | W025.00 | W025.00 | 60 | 14 | / | - | - | 21.5 | 16.5 | 22.4 | - | - | - | 1015.8 | / | / |
| FRE | 01.05.26 02:00 | N16.48 | W025.00 | W025.00 | 60 | 12 | / | - | - | 21.5 | 16.5 | 22.2 | - | - | - | 1015.9 | / | / |
| FRE | 01.05.26 01:00 | N16.48 | W025.00 | W025.00 | 50 | 12 | / | - | - | 21.6 | 16.8 | 22.1 | - | - | - | 1016.2 | / | / |
| FRE | 01.05.26 00:00 | N16.48 | W025.00 | W025.00 | 60 | 12 | / | - | - | 21.7 | 16.7 | 22.2 | - | - | - | 1016.6 | / | / |
| DON | 30.04.26 23:00 | N16.48 | W025.00 | W025.00 | 50 | 12 | / | - | - | 21.8 | 16.8 | 22.4 | - | - | - | 1016.6 | / | / |
| DON | 30.04.26 22:00 | N16.48 | W025.00 | W025.00 | 60 | 12 | / | - | - | 21.8 | 17.2 | 22.5 | - | - | - | 1016.2 | / | / |
| DON | 30.04.26 16:00 | N16.48 | W025.00 | W025.00 | 50 | 12 | / | - | - | 22.0 | 17.0 | 22.4 | - | - | - | 1015.3 | / | / |
| DON | 30.04.26 15:00 | N16.48 | W025.00 | W025.00 | 50 | 16 | / | - | - | 22.2 | 15.9 | 22.3 | - | - | - | 1015.9 | / | / |
| DON | 30.04.26 14:00 | N16.48 | W025.00 | W025.00 | 40 | 18 | / | - | - | 22.0 | 15.9 | 22.3 | - | - | - | 1016.5 | / | / |
| DON | 30.04.26 11:00 | N16.48 | W025.00 | W025.00 | 50 | 14 | / | - | - | 21.9 | 14.9 | 22.3 | - | - | - | 1017.3 | / | / |
| DON | 30.04.26 10:00 | N16.48 | W025.00 | W025.00 | 50 | 14 | / | - | - | 21.8 | 15.0 | 22.3 | - | - | - | 1017.2 | / | / |
| DON | 30.04.26 09:00 | N16.48 | W025.00 | W025.00 | 50 | 14 | / | - | - | 21.6 | 15.3 | 22.3 | - | - | - | 1016.8 | / | / |
| Day | DTG UTC | La.mm | Lon.mm | TRK/SPD | Wind | kt | N | Vis | wwMETAR | Tl | Td | Tw | Sea | Swl | ~Dir | MSLP | ICE | Bi |
|---|---|---|---|---|---|---|---|---|---|---|---|---|---|---|---|---|---|---|
| DON | 30.04.26 06:00 | N16.48 | W025.06 | W025.06 | 60 | 14 | / | - | - | 21.2 | 14.9 | 23.4 | - | - | - | 1015.0 | / | / |
| DON | 30.04.26 05:00 | N16.36 | W025.12 | W025.12 | 40 | 14 | / | - | - | 21.4 | 15.5 | 23.6 | - | - | - | 1014.7 | / | / |
| DON | 30.04.26 04:00 | N16.24 | W025.12 | W025.12 | 60 | 18 | / | - | - | 21.6 | 16.6 | 23.3 | - | - | - | 1014.7 | / | / |
| DON | 30.04.26 03:00 | N16.18 | W025.12 | W025.12 | 60 | 16 | / | - | - | 21.7 | 16.7 | 22.9 | - | - | - | 1014.5 | / | / |
| DON | 30.04.26 01:00 | N15.54 | W025.12 | W025.12 | 40 | 18 | / | - | - | 21.8 | 17.5 | 23.7 | - | - | - | 1015.0 | / | / |
| DON | 30.04.26 00:00 | N15.36 | W025.06 | W025.06 | 40 | 16 | / | - | - | 21.8 | 17.2 | 23.8 | - | - | - | 1015.5 | / | / |
| MIT | 29.04.26 23:00 | N15.36 | W025.12 | W025.12 | 70 | 14 | / | - | - | 22.3 | 16.9 | 24.4 | - | - | - | 1015.0 | / | / |
| MIT | 29.04.26 21:00 | N15.12 | W025.12 | W025.12 | 40 | 16 | / | - | - | 22.3 | 16.9 | 24.6 | - | - | - | 1013.3 | / | / |
| MIT | 29.04.26 19:00 | N14.54 | W025.12 | W025.12 | 40 | 18 | / | - | - | 22.5 | 17.1 | 25.0 | - | - | - | 1012.1 | / | / |
| MIT | 29.04.26 18:00 | N14.36 | W025.06 | W025.06 | 20 | 16 | / | - | - | 22.6 | 16.5 | 25.2 | - | - | - | 1012.0 | / | / |
| MIT | 29.04.26 14:00 | N14.00 | W025.12 | W025.12 | 360 | 10 | / | - | - | 23.1 | 17.2 | 25.1 | - | - | - | 1014.0 | / | / |
| MIT | 29.04.26 13:00 | N13.48 | W025.12 | W025.12 | 360 | 10 | / | - | - | 23.2 | 17.3 | 24.7 | - | - | - | 1014.5 | / | / |
| MIT | 29.04.26 12:00 | N13.36 | W025.06 | W025.06 | 360 | 10 | / | - | - | 23.4 | 17.7 | 24.6 | - | - | - | 1014.6 | / | / |
| MIT | 29.04.26 10:00 | N13.18 | W025.12 | W025.12 | 30 | 10 | / | - | - | 23.4 | 17.7 | 24.6 | - | - | - | 1014.5 | / | / |
| MIT | 29.04.26 09:00 | N13.06 | W025.12 | W025.12 | 20 | 10 | / | - | - | 23.2 | 18.2 | 24.6 | - | - | - | 1014.1 | / | / |
| MIT | 29.04.26 08:00 | N12.54 | W025.12 | W025.12 | 30 | 08 | / | - | - | 23.4 | 17.9 | 24.6 | - | - | - | 1013.6 | / | / |
| MIT | 29.04.26 07:00 | N12.42 | W025.12 | W025.12 | 20 | 08 | / | - | - | 23.4 | 17.9 | 24.5 | - | - | - | 1013.4 | / | / |
| MIT | 29.04.26 06:00 | N12.30 | W025.06 | W025.06 | 20 | 10 | / | - | - | 23.3 | 18.7 | 24.4 | - | - | - | 1012.8 | / | / |
| MIT | 29.04.26 04:00 | N12.12 | W025.12 | W025.12 | 40 | 12 | / | - | - | 23.0 | 18.6 | 23.7 | - | - | - | 1012.6 | / | / |
| MIT | 29.04.26 02:00 | N11.48 | W025.12 | W025.12 | 50 | 16 | / | - | - | 22.6 | 19.0 | 24.1 | - | - | - | 1013.6 | / | / |
| Day | DTG UTC | La.mm | Lon.mm | TRK/SPD | Wind | kt | N | Vis | wwMETAR | Tl | Td | Tw | Sea | Swl | ~Dir | MSLP | ICE | Bi |
|---|---|---|---|---|---|---|---|---|---|---|---|---|---|---|---|---|---|---|
| DIE | 28.04.26 23:00 | N11.18 | W025.12 | W025.12 | 40 | 18 | / | - | - | 22.9 | 18.9 | 24.3 | - | - | - | 1014.3 | / | / |
| DIE | 28.04.26 21:00 | N11.00 | W025.12 | W025.12 | 50 | 18 | / | - | - | 23.2 | 19.0 | 24.5 | - | - | - | 1013.1 | / | / |
| DIE | 28.04.26 19:00 | N10.36 | W025.12 | W025.12 | 40 | 16 | / | - | - | 23.4 | 19.2 | 24.8 | - | - | - | 1012.1 | / | / |
| DIE | 28.04.26 18:00 | N10.24 | W025.06 | W025.06 | 30 | 16 | / | - | - | 23.5 | 18.9 | 24.9 | - | - | - | 1011.8 | / | / |
| DIE | 28.04.26 14:00 | N09.42 | W025.12 | W025.12 | 30 | 18 | / | - | - | 23.6 | 19.2 | 25.1 | - | - | - | 1013.7 | / | / |
| DIE | 28.04.26 13:00 | N09.36 | W025.12 | W025.12 | 30 | 18 | / | - | - | 23.7 | 18.6 | 25.1 | - | - | - | 1014.4 | / | / |
| DIE | 28.04.26 12:00 | N09.30 | W025.06 | W025.06 | 30 | 16 | / | - | - | 23.7 | 19.1 | 25.0 | - | - | - | 1014.8 | / | / |
| DIE | 28.04.26 11:00 | N09.36 | W025.12 | W025.12 | 30 | 14 | / | - | - | 23.7 | 19.1 | 25.0 | - | - | - | 1015.3 | / | / |
| DIE | 28.04.26 09:00 | N09.36 | W025.12 | W025.12 | 40 | 14 | / | - | - | 23.5 | 19.5 | 25.0 | - | - | - | 1014.6 | / | / |
| DIE | 28.04.26 06:00 | N09.00 | W025.06 | W025.06 | 30 | 16 | / | - | - | 24.1 | 19.7 | 26.1 | - | - | - | 1012.8 | / | / |
| DIE | 28.04.26 05:00 | N08.54 | W025.12 | W025.12 | 40 | 16 | / | - | - | 24.3 | 19.7 | 26.1 | - | - | - | 1012.5 | / | / |
| DIE | 28.04.26 03:00 | N08.30 | W025.12 | W025.12 | 40 | 14 | / | - | - | 24.4 | 20.0 | 25.8 | - | - | - | 1013.1 | / | / |
| DIE | 28.04.26 02:00 | N08.18 | W025.12 | W025.12 | 30 | 14 | / | - | - | 24.5 | 19.6 | 26.1 | - | - | - | 1013.6 | / | / |